sensor_id;sensor_type;location;lat;lon;timestamp;P1;durP1;ratioP1;P2;durP2;ratioP2
8536;SDS011;4306;50.210;10.628;2022-11-24T00:01:28;9.80;;;6.00;;
8536;SDS011;4306;50.210;10.628;2022-11-24T00:03:57;11.43;;;7.28;;
8536;SDS011;4306;50.210;10.628;2022-11-24T00:06:26;9.95;;;6.80;;
8536;SDS011;4306;50.210;10.628;2022-11-24T00:08:53;10.75;;;6.15;;
8536;SDS011;4306;50.210;10.628;2022-11-24T00:11:22;14.02;;;8.02;;
8536;SDS011;4306;50.210;10.628;2022-11-24T00:13:50;11.25;;;7.75;;
8536;SDS011;4306;50.210;10.628;2022-11-24T00:16:17;14.80;;;10.85;;
8536;SDS011;4306;50.210;10.628;2022-11-24T00:18:46;12.38;;;7.88;;
8536;SDS011;4306;50.210;10.628;2022-11-24T00:21:16;16.48;;;12.18;;
8536;SDS011;4306;50.210;10.628;2022-11-24T00:23:44;15.13;;;9.38;;
8536;SDS011;4306;50.210;10.628;2022-11-24T00:26:13;17.17;;;11.85;;
8536;SDS011;4306;50.210;10.628;2022-11-24T00:28:41;11.02;;;7.30;;
8536;SDS011;4306;50.210;10.628;2022-11-24T00:31:13;10.50;;;7.35;;
8536;SDS011;4306;50.210;10.628;2022-11-24T00:33:41;14.45;;;7.30;;
8536;SDS011;4306;50.210;10.628;2022-11-24T00:36:08;15.30;;;8.25;;
8536;SDS011;4306;50.210;10.628;2022-11-24T00:38:36;17.05;;;9.05;;
8536;SDS011;4306;50.210;10.628;2022-11-24T00:41:03;14.77;;;8.00;;
8536;SDS011;4306;50.210;10.628;2022-11-24T00:43:30;11.82;;;8.00;;
8536;SDS011;4306;50.210;10.628;2022-11-24T00:45:57;18.48;;;9.15;;
8536;SDS011;4306;50.210;10.628;2022-11-24T00:48:24;14.90;;;8.75;;
8536;SDS011;4306;50.210;10.628;2022-11-24T00:50:54;13.00;;;8.70;;
8536;SDS011;4306;50.210;10.628;2022-11-24T00:53:22;14.48;;;8.48;;
8536;SDS011;4306;50.210;10.628;2022-11-24T00:55:50;17.42;;;8.63;;
8536;SDS011;4306;50.210;10.628;2022-11-24T00:58:17;19.10;;;9.13;;
8536;SDS011;4306;50.210;10.628;2022-11-24T01:00:44;14.13;;;8.07;;
8536;SDS011;4306;50.210;10.628;2022-11-24T01:03:11;11.73;;;7.60;;
8536;SDS011;4306;50.210;10.628;2022-11-24T01:05:39;12.50;;;8.30;;
8536;SDS011;4306;50.210;10.628;2022-11-24T01:08:06;13.35;;;8.85;;
8536;SDS011;4306;50.210;10.628;2022-11-24T01:10:33;12.73;;;8.50;;
8536;SDS011;4306;50.210;10.628;2022-11-24T01:13:01;15.37;;;9.40;;
8536;SDS011;4306;50.210;10.628;2022-11-24T01:15:28;12.70;;;8.32;;
8536;SDS011;4306;50.210;10.628;2022-11-24T01:17:56;14.98;;;8.57;;
8536;SDS011;4306;50.210;10.628;2022-11-24T01:20:22;13.90;;;8.73;;
8536;SDS011;4306;50.210;10.628;2022-11-24T01:22:49;14.35;;;8.80;;
8536;SDS011;4306;50.210;10.628;2022-11-24T01:25:16;14.10;;;8.43;;
8536;SDS011;4306;50.210;10.628;2022-11-24T01:27:43;14.45;;;9.20;;
8536;SDS011;4306;50.210;10.628;2022-11-24T01:30:11;12.95;;;9.02;;
8536;SDS011;4306;50.210;10.628;2022-11-24T01:32:38;14.52;;;8.65;;
8536;SDS011;4306;50.210;10.628;2022-11-24T01:35:05;13.32;;;8.45;;
8536;SDS011;4306;50.210;10.628;2022-11-24T01:37:33;17.00;;;8.35;;
8536;SDS011;4306;50.210;10.628;2022-11-24T01:40:00;15.83;;;8.77;;
8536;SDS011;4306;50.210;10.628;2022-11-24T01:42:35;15.90;;;9.07;;
8536;SDS011;4306;50.210;10.628;2022-11-24T01:45:26;16.20;;;9.05;;
8536;SDS011;4306;50.210;10.628;2022-11-24T01:47:58;13.70;;;8.90;;
8536;SDS011;4306;50.210;10.628;2022-11-24T01:50:28;17.25;;;9.52;;
8536;SDS011;4306;50.210;10.628;2022-11-24T01:52:55;16.03;;;8.67;;
8536;SDS011;4306;50.210;10.628;2022-11-24T01:55:24;13.10;;;8.77;;
8536;SDS011;4306;50.210;10.628;2022-11-24T01:57:56;15.07;;;8.43;;
8536;SDS011;4306;50.210;10.628;2022-11-24T02:00:28;12.30;;;8.55;;
8536;SDS011;4306;50.210;10.628;2022-11-24T02:02:55;14.70;;;8.27;;
8536;SDS011;4306;50.210;10.628;2022-11-24T02:05:24;15.98;;;8.70;;
8536;SDS011;4306;50.210;10.628;2022-11-24T02:07:54;14.80;;;8.38;;
8536;SDS011;4306;50.210;10.628;2022-11-24T02:10:24;12.40;;;7.68;;
8536;SDS011;4306;50.210;10.628;2022-11-24T02:12:53;14.20;;;8.60;;
8536;SDS011;4306;50.210;10.628;2022-11-24T02:15:21;16.90;;;7.88;;
8536;SDS011;4306;50.210;10.628;2022-11-24T02:17:50;21.20;;;9.80;;
8536;SDS011;4306;50.210;10.628;2022-11-24T02:20:17;12.23;;;8.88;;
8536;SDS011;4306;50.210;10.628;2022-11-24T02:22:46;19.05;;;9.50;;
8536;SDS011;4306;50.210;10.628;2022-11-24T02:25:22;14.98;;;8.48;;
8536;SDS011;4306;50.210;10.628;2022-11-24T02:27:56;15.63;;;8.20;;
8536;SDS011;4306;50.210;10.628;2022-11-24T02:30:25;13.75;;;8.40;;
8536;SDS011;4306;50.210;10.628;2022-11-24T02:32:52;18.45;;;8.48;;
8536;SDS011;4306;50.210;10.628;2022-11-24T02:35:19;15.63;;;9.18;;
8536;SDS011;4306;50.210;10.628;2022-11-24T02:37:46;15.18;;;8.18;;
8536;SDS011;4306;50.210;10.628;2022-11-24T02:40:14;15.27;;;9.13;;
8536;SDS011;4306;50.210;10.628;2022-11-24T02:42:42;11.35;;;8.10;;
8536;SDS011;4306;50.210;10.628;2022-11-24T02:45:12;14.32;;;7.80;;
8536;SDS011;4306;50.210;10.628;2022-11-24T02:47:41;16.38;;;7.82;;
8536;SDS011;4306;50.210;10.628;2022-11-24T02:50:08;16.05;;;8.35;;
8536;SDS011;4306;50.210;10.628;2022-11-24T02:52:35;17.15;;;7.80;;
8536;SDS011;4306;50.210;10.628;2022-11-24T02:55:02;17.08;;;8.18;;
8536;SDS011;4306;50.210;10.628;2022-11-24T02:57:29;15.50;;;8.15;;
8536;SDS011;4306;50.210;10.628;2022-11-24T02:59:56;18.13;;;8.93;;
8536;SDS011;4306;50.210;10.628;2022-11-24T03:02:24;16.10;;;8.43;;
8536;SDS011;4306;50.210;10.628;2022-11-24T03:04:51;13.87;;;7.77;;
8536;SDS011;4306;50.210;10.628;2022-11-24T03:07:18;11.98;;;7.13;;
8536;SDS011;4306;50.210;10.628;2022-11-24T03:09:45;16.38;;;8.30;;
8536;SDS011;4306;50.210;10.628;2022-11-24T03:12:11;13.73;;;8.02;;
8536;SDS011;4306;50.210;10.628;2022-11-24T03:14:38;14.50;;;7.20;;
8536;SDS011;4306;50.210;10.628;2022-11-24T03:17:05;12.20;;;7.32;;
8536;SDS011;4306;50.210;10.628;2022-11-24T03:19:33;15.00;;;7.28;;
8536;SDS011;4306;50.210;10.628;2022-11-24T03:22:00;13.43;;;7.37;;
8536;SDS011;4306;50.210;10.628;2022-11-24T03:24:27;13.48;;;6.57;;
8536;SDS011;4306;50.210;10.628;2022-11-24T03:26:54;15.77;;;7.75;;
8536;SDS011;4306;50.210;10.628;2022-11-24T03:29:21;14.10;;;6.50;;
8536;SDS011;4306;50.210;10.628;2022-11-24T03:31:48;11.97;;;6.40;;
8536;SDS011;4306;50.210;10.628;2022-11-24T03:34:15;11.57;;;6.30;;
8536;SDS011;4306;50.210;10.628;2022-11-24T03:36:43;12.37;;;6.83;;
8536;SDS011;4306;50.210;10.628;2022-11-24T03:39:10;16.27;;;6.93;;
8536;SDS011;4306;50.210;10.628;2022-11-24T03:41:37;12.77;;;6.55;;
8536;SDS011;4306;50.210;10.628;2022-11-24T03:44:04;14.80;;;8.27;;
8536;SDS011;4306;50.210;10.628;2022-11-24T03:46:31;17.13;;;8.23;;
8536;SDS011;4306;50.210;10.628;2022-11-24T03:48:58;13.07;;;7.15;;
8536;SDS011;4306;50.210;10.628;2022-11-24T03:51:25;13.10;;;7.88;;
8536;SDS011;4306;50.210;10.628;2022-11-24T03:53:53;15.13;;;7.53;;
8536;SDS011;4306;50.210;10.628;2022-11-24T03:56:20;14.15;;;6.78;;
8536;SDS011;4306;50.210;10.628;2022-11-24T03:58:47;15.77;;;7.80;;
8536;SDS011;4306;50.210;10.628;2022-11-24T04:01:13;13.48;;;7.75;;
8536;SDS011;4306;50.210;10.628;2022-11-24T04:03:40;13.88;;;6.88;;
8536;SDS011;4306;50.210;10.628;2022-11-24T04:06:07;18.90;;;7.07;;
8536;SDS011;4306;50.210;10.628;2022-11-24T04:08:34;16.20;;;7.70;;
8536;SDS011;4306;50.210;10.628;2022-11-24T04:11:02;13.65;;;7.97;;
8536;SDS011;4306;50.210;10.628;2022-11-24T04:13:29;15.10;;;7.38;;
8536;SDS011;4306;50.210;10.628;2022-11-24T04:15:55;12.50;;;6.97;;
8536;SDS011;4306;50.210;10.628;2022-11-24T04:18:22;16.25;;;7.32;;
8536;SDS011;4306;50.210;10.628;2022-11-24T04:20:49;14.70;;;7.40;;
8536;SDS011;4306;50.210;10.628;2022-11-24T04:23:17;18.95;;;7.10;;
8536;SDS011;4306;50.210;10.628;2022-11-24T04:25:44;18.38;;;7.47;;
8536;SDS011;4306;50.210;10.628;2022-11-24T04:28:12;11.43;;;7.22;;
8536;SDS011;4306;50.210;10.628;2022-11-24T04:30:39;14.52;;;7.47;;
8536;SDS011;4306;50.210;10.628;2022-11-24T04:33:08;16.88;;;8.13;;
8536;SDS011;4306;50.210;10.628;2022-11-24T04:35:36;16.75;;;7.85;;
8536;SDS011;4306;50.210;10.628;2022-11-24T04:38:02;12.57;;;6.78;;
8536;SDS011;4306;50.210;10.628;2022-11-24T04:40:29;11.82;;;6.95;;
8536;SDS011;4306;50.210;10.628;2022-11-24T04:42:56;15.93;;;6.72;;
8536;SDS011;4306;50.210;10.628;2022-11-24T04:45:24;13.23;;;6.20;;
8536;SDS011;4306;50.210;10.628;2022-11-24T04:47:51;16.88;;;6.97;;
8536;SDS011;4306;50.210;10.628;2022-11-24T04:50:18;14.68;;;6.20;;
8536;SDS011;4306;50.210;10.628;2022-11-24T04:52:45;12.30;;;5.73;;
8536;SDS011;4306;50.210;10.628;2022-11-24T04:55:12;15.25;;;6.07;;
8536;SDS011;4306;50.210;10.628;2022-11-24T04:57:38;16.17;;;5.40;;
8536;SDS011;4306;50.210;10.628;2022-11-24T05:00:06;13.50;;;5.53;;
8536;SDS011;4306;50.210;10.628;2022-11-24T05:02:35;14.48;;;5.35;;
8536;SDS011;4306;50.210;10.628;2022-11-24T05:05:02;9.52;;;4.55;;
8536;SDS011;4306;50.210;10.628;2022-11-24T05:07:30;13.45;;;4.68;;
8536;SDS011;4306;50.210;10.628;2022-11-24T05:09:57;17.07;;;5.17;;
8536;SDS011;4306;50.210;10.628;2022-11-24T05:12:41;10.90;;;4.33;;
8536;SDS011;4306;50.210;10.628;2022-11-24T05:15:08;10.02;;;4.22;;
8536;SDS011;4306;50.210;10.628;2022-11-24T05:17:38;12.98;;;5.05;;
8536;SDS011;4306;50.210;10.628;2022-11-24T05:20:05;13.60;;;4.40;;
8536;SDS011;4306;50.210;10.628;2022-11-24T05:22:33;13.05;;;5.28;;
8536;SDS011;4306;50.210;10.628;2022-11-24T05:25:00;11.43;;;4.95;;
8536;SDS011;4306;50.210;10.628;2022-11-24T05:27:27;17.73;;;6.50;;
8536;SDS011;4306;50.210;10.628;2022-11-24T05:29:55;15.07;;;6.57;;
8536;SDS011;4306;50.210;10.628;2022-11-24T05:32:21;12.68;;;6.25;;
8536;SDS011;4306;50.210;10.628;2022-11-24T05:34:50;13.25;;;5.03;;
8536;SDS011;4306;50.210;10.628;2022-11-24T05:37:18;15.20;;;4.68;;
8536;SDS011;4306;50.210;10.628;2022-11-24T05:39:45;17.60;;;5.03;;
8536;SDS011;4306;50.210;10.628;2022-11-24T05:42:11;12.27;;;3.70;;
8536;SDS011;4306;50.210;10.628;2022-11-24T05:45:11;15.35;;;4.60;;
8536;SDS011;4306;50.210;10.628;2022-11-24T05:47:40;13.00;;;4.20;;
8536;SDS011;4306;50.210;10.628;2022-11-24T05:50:09;15.27;;;5.30;;
8536;SDS011;4306;50.210;10.628;2022-11-24T05:52:38;17.73;;;4.90;;
8536;SDS011;4306;50.210;10.628;2022-11-24T05:55:05;10.20;;;3.83;;
8536;SDS011;4306;50.210;10.628;2022-11-24T05:57:33;12.43;;;4.75;;
8536;SDS011;4306;50.210;10.628;2022-11-24T06:00:00;11.35;;;4.03;;
8536;SDS011;4306;50.210;10.628;2022-11-24T06:02:28;7.88;;;3.75;;
8536;SDS011;4306;50.210;10.628;2022-11-24T06:04:55;16.23;;;3.78;;
8536;SDS011;4306;50.210;10.628;2022-11-24T06:07:23;16.65;;;4.30;;
8536;SDS011;4306;50.210;10.628;2022-11-24T06:09:50;13.88;;;4.15;;
8536;SDS011;4306;50.210;10.628;2022-11-24T06:12:17;11.65;;;3.90;;
8536;SDS011;4306;50.210;10.628;2022-11-24T06:14:44;16.42;;;5.25;;
8536;SDS011;4306;50.210;10.628;2022-11-24T06:17:11;15.90;;;4.28;;
8536;SDS011;4306;50.210;10.628;2022-11-24T06:19:38;15.10;;;4.07;;
8536;SDS011;4306;50.210;10.628;2022-11-24T06:22:05;15.80;;;4.37;;
8536;SDS011;4306;50.210;10.628;2022-11-24T06:24:33;9.98;;;4.22;;
8536;SDS011;4306;50.210;10.628;2022-11-24T06:27:00;10.73;;;3.58;;
8536;SDS011;4306;50.210;10.628;2022-11-24T06:29:27;8.98;;;3.92;;
8536;SDS011;4306;50.210;10.628;2022-11-24T06:31:54;15.40;;;4.18;;
8536;SDS011;4306;50.210;10.628;2022-11-24T06:34:21;13.38;;;4.47;;
8536;SDS011;4306;50.210;10.628;2022-11-24T06:36:47;14.95;;;3.78;;
8536;SDS011;4306;50.210;10.628;2022-11-24T06:39:14;16.20;;;4.15;;
8536;SDS011;4306;50.210;10.628;2022-11-24T06:41:43;9.50;;;3.80;;
8536;SDS011;4306;50.210;10.628;2022-11-24T06:44:09;14.10;;;3.55;;
8536;SDS011;4306;50.210;10.628;2022-11-24T06:46:36;14.00;;;3.20;;
8536;SDS011;4306;50.210;10.628;2022-11-24T06:49:03;11.48;;;3.85;;
8536;SDS011;4306;50.210;10.628;2022-11-24T06:51:30;14.15;;;3.70;;
8536;SDS011;4306;50.210;10.628;2022-11-24T06:53:57;13.32;;;4.38;;
8536;SDS011;4306;50.210;10.628;2022-11-24T06:56:24;11.82;;;4.00;;
8536;SDS011;4306;50.210;10.628;2022-11-24T06:58:52;11.93;;;3.80;;
8536;SDS011;4306;50.210;10.628;2022-11-24T07:01:19;18.70;;;4.75;;
8536;SDS011;4306;50.210;10.628;2022-11-24T07:03:48;15.98;;;4.47;;
8536;SDS011;4306;50.210;10.628;2022-11-24T07:06:16;19.17;;;5.85;;
8536;SDS011;4306;50.210;10.628;2022-11-24T07:08:44;14.25;;;4.43;;
8536;SDS011;4306;50.210;10.628;2022-11-24T07:11:13;17.83;;;5.65;;
8536;SDS011;4306;50.210;10.628;2022-11-24T07:13:41;16.15;;;4.88;;
8536;SDS011;4306;50.210;10.628;2022-11-24T07:16:13;12.77;;;4.78;;
8536;SDS011;4306;50.210;10.628;2022-11-24T07:18:42;16.17;;;4.00;;
8536;SDS011;4306;50.210;10.628;2022-11-24T07:21:10;20.85;;;4.90;;
8536;SDS011;4306;50.210;10.628;2022-11-24T07:23:37;17.95;;;5.18;;
8536;SDS011;4306;50.210;10.628;2022-11-24T07:26:04;11.95;;;4.25;;
8536;SDS011;4306;50.210;10.628;2022-11-24T07:28:32;15.00;;;4.85;;
8536;SDS011;4306;50.210;10.628;2022-11-24T07:31:03;20.13;;;6.70;;
8536;SDS011;4306;50.210;10.628;2022-11-24T07:33:32;12.20;;;5.90;;
8536;SDS011;4306;50.210;10.628;2022-11-24T07:35:59;12.52;;;4.20;;
8536;SDS011;4306;50.210;10.628;2022-11-24T07:38:27;14.95;;;4.18;;
8536;SDS011;4306;50.210;10.628;2022-11-24T07:40:58;14.45;;;4.38;;
8536;SDS011;4306;50.210;10.628;2022-11-24T07:43:26;14.63;;;3.78;;
8536;SDS011;4306;50.210;10.628;2022-11-24T07:45:53;10.80;;;4.80;;
8536;SDS011;4306;50.210;10.628;2022-11-24T07:48:19;16.05;;;4.13;;
8536;SDS011;4306;50.210;10.628;2022-11-24T07:50:48;18.85;;;4.57;;
8536;SDS011;4306;50.210;10.628;2022-11-24T07:53:15;8.23;;;3.63;;
8536;SDS011;4306;50.210;10.628;2022-11-24T07:55:42;9.98;;;3.70;;
8536;SDS011;4306;50.210;10.628;2022-11-24T07:58:09;11.27;;;3.83;;
8536;SDS011;4306;50.210;10.628;2022-11-24T08:00:36;10.02;;;3.30;;
8536;SDS011;4306;50.210;10.628;2022-11-24T08:03:03;13.68;;;3.72;;
8536;SDS011;4306;50.210;10.628;2022-11-24T08:05:30;13.55;;;3.45;;
8536;SDS011;4306;50.210;10.628;2022-11-24T08:07:59;16.20;;;3.63;;
8536;SDS011;4306;50.210;10.628;2022-11-24T08:10:26;12.05;;;3.40;;
8536;SDS011;4306;50.210;10.628;2022-11-24T08:12:53;18.73;;;3.85;;
8536;SDS011;4306;50.210;10.628;2022-11-24T08:15:20;15.05;;;3.50;;
8536;SDS011;4306;50.210;10.628;2022-11-24T08:17:47;8.30;;;3.33;;
8536;SDS011;4306;50.210;10.628;2022-11-24T08:20:13;12.13;;;3.22;;
8536;SDS011;4306;50.210;10.628;2022-11-24T08:22:40;11.07;;;2.85;;
8536;SDS011;4306;50.210;10.628;2022-11-24T08:25:09;14.07;;;3.20;;
8536;SDS011;4306;50.210;10.628;2022-11-24T08:27:38;8.85;;;3.40;;
8536;SDS011;4306;50.210;10.628;2022-11-24T08:30:05;16.08;;;4.28;;
8536;SDS011;4306;50.210;10.628;2022-11-24T08:32:33;14.27;;;3.53;;
8536;SDS011;4306;50.210;10.628;2022-11-24T08:35:00;12.45;;;3.60;;
8536;SDS011;4306;50.210;10.628;2022-11-24T08:37:27;15.23;;;3.83;;
8536;SDS011;4306;50.210;10.628;2022-11-24T08:39:54;12.93;;;3.25;;
8536;SDS011;4306;50.210;10.628;2022-11-24T08:42:22;16.33;;;4.53;;
8536;SDS011;4306;50.210;10.628;2022-11-24T08:44:49;18.00;;;3.95;;
8536;SDS011;4306;50.210;10.628;2022-11-24T08:47:15;15.07;;;3.80;;
8536;SDS011;4306;50.210;10.628;2022-11-24T08:49:42;14.90;;;4.30;;
8536;SDS011;4306;50.210;10.628;2022-11-24T08:52:09;17.52;;;4.88;;
8536;SDS011;4306;50.210;10.628;2022-11-24T08:54:36;12.88;;;3.38;;
8536;SDS011;4306;50.210;10.628;2022-11-24T08:57:04;14.57;;;3.97;;
8536;SDS011;4306;50.210;10.628;2022-11-24T08:59:33;12.98;;;4.55;;
8536;SDS011;4306;50.210;10.628;2022-11-24T09:01:59;19.90;;;4.47;;
8536;SDS011;4306;50.210;10.628;2022-11-24T09:04:26;15.55;;;3.95;;
8536;SDS011;4306;50.210;10.628;2022-11-24T09:06:53;11.85;;;3.95;;
8536;SDS011;4306;50.210;10.628;2022-11-24T09:09:20;13.48;;;5.43;;
8536;SDS011;4306;50.210;10.628;2022-11-24T09:11:47;17.65;;;7.55;;
8536;SDS011;4306;50.210;10.628;2022-11-24T09:14:14;17.17;;;4.03;;
8536;SDS011;4306;50.210;10.628;2022-11-24T09:16:42;15.27;;;4.63;;
8536;SDS011;4306;50.210;10.628;2022-11-24T09:19:09;38.08;;;20.13;;
8536;SDS011;4306;50.210;10.628;2022-11-24T09:21:36;15.77;;;4.78;;
8536;SDS011;4306;50.210;10.628;2022-11-24T09:24:04;20.08;;;3.90;;
8536;SDS011;4306;50.210;10.628;2022-11-24T09:26:32;19.50;;;9.15;;
8536;SDS011;4306;50.210;10.628;2022-11-24T09:29:00;15.90;;;5.40;;
8536;SDS011;4306;50.210;10.628;2022-11-24T09:31:30;20.45;;;9.10;;
8536;SDS011;4306;50.210;10.628;2022-11-24T09:34:00;21.33;;;9.55;;
8536;SDS011;4306;50.210;10.628;2022-11-24T09:36:27;25.13;;;9.07;;
8536;SDS011;4306;50.210;10.628;2022-11-24T09:38:55;27.80;;;13.27;;
8536;SDS011;4306;50.210;10.628;2022-11-24T09:41:26;15.85;;;5.07;;
8536;SDS011;4306;50.210;10.628;2022-11-24T09:44:17;25.73;;;8.70;;
8536;SDS011;4306;50.210;10.628;2022-11-24T09:47:05;24.27;;;8.75;;
8536;SDS011;4306;50.210;10.628;2022-11-24T09:49:41;24.05;;;7.60;;
8536;SDS011;4306;50.210;10.628;2022-11-24T09:52:15;21.27;;;7.93;;
8536;SDS011;4306;50.210;10.628;2022-11-24T09:54:48;13.00;;;5.53;;
8536;SDS011;4306;50.210;10.628;2022-11-24T09:57:18;16.77;;;5.20;;
8536;SDS011;4306;50.210;10.628;2022-11-24T09:59:48;16.30;;;4.90;;
8536;SDS011;4306;50.210;10.628;2022-11-24T10:02:15;12.20;;;4.00;;
8536;SDS011;4306;50.210;10.628;2022-11-24T10:04:44;14.23;;;5.25;;
8536;SDS011;4306;50.210;10.628;2022-11-24T10:07:14;9.60;;;3.13;;
8536;SDS011;4306;50.210;10.628;2022-11-24T10:09:51;13.50;;;3.70;;
8536;SDS011;4306;50.210;10.628;2022-11-24T10:12:29;13.13;;;4.30;;
8536;SDS011;4306;50.210;10.628;2022-11-24T10:15:14;9.38;;;2.70;;
8536;SDS011;4306;50.210;10.628;2022-11-24T10:21:06;13.23;;;5.40;;
8536;SDS011;4306;50.210;10.628;2022-11-24T10:23:48;13.25;;;4.03;;
8536;SDS011;4306;50.210;10.628;2022-11-24T10:26:30;16.02;;;8.57;;
8536;SDS011;4306;50.210;10.628;2022-11-24T10:29:01;11.60;;;3.97;;
8536;SDS011;4306;50.210;10.628;2022-11-24T10:31:39;7.30;;;3.03;;
8536;SDS011;4306;50.210;10.628;2022-11-24T10:34:09;12.00;;;3.70;;
8536;SDS011;4306;50.210;10.628;2022-11-24T10:36:42;13.05;;;3.80;;
8536;SDS011;4306;50.210;10.628;2022-11-24T10:39:16;8.85;;;3.20;;
8536;SDS011;4306;50.210;10.628;2022-11-24T10:41:49;10.73;;;2.70;;
8536;SDS011;4306;50.210;10.628;2022-11-24T10:44:21;9.70;;;3.08;;
8536;SDS011;4306;50.210;10.628;2022-11-24T10:46:49;7.70;;;2.22;;
8536;SDS011;4306;50.210;10.628;2022-11-24T10:49:17;9.07;;;2.17;;
8536;SDS011;4306;50.210;10.628;2022-11-24T10:51:54;7.95;;;2.50;;
8536;SDS011;4306;50.210;10.628;2022-11-24T10:54:29;8.98;;;2.15;;
8536;SDS011;4306;50.210;10.628;2022-11-24T10:56:56;8.73;;;2.05;;
8536;SDS011;4306;50.210;10.628;2022-11-24T10:59:30;8.63;;;2.17;;
8536;SDS011;4306;50.210;10.628;2022-11-24T11:01:59;9.65;;;2.00;;
8536;SDS011;4306;50.210;10.628;2022-11-24T11:04:27;9.50;;;2.53;;
8536;SDS011;4306;50.210;10.628;2022-11-24T11:09:49;8.15;;;2.05;;
8536;SDS011;4306;50.210;10.628;2022-11-24T11:12:20;7.20;;;1.80;;
8536;SDS011;4306;50.210;10.628;2022-11-24T11:14:48;9.68;;;2.35;;
8536;SDS011;4306;50.210;10.628;2022-11-24T11:17:28;9.45;;;2.75;;
8536;SDS011;4306;50.210;10.628;2022-11-24T11:20:03;10.27;;;3.08;;
8536;SDS011;4306;50.210;10.628;2022-11-24T11:22:34;9.35;;;2.63;;
8536;SDS011;4306;50.210;10.628;2022-11-24T11:25:06;12.82;;;3.28;;
8536;SDS011;4306;50.210;10.628;2022-11-24T11:27:44;11.02;;;2.95;;
8536;SDS011;4306;50.210;10.628;2022-11-24T11:30:18;6.80;;;2.22;;
8536;SDS011;4306;50.210;10.628;2022-11-24T11:32:52;4.63;;;2.30;;
8536;SDS011;4306;50.210;10.628;2022-11-24T11:37:51;9.55;;;2.60;;
8536;SDS011;4306;50.210;10.628;2022-11-24T11:40:23;6.55;;;2.03;;
8536;SDS011;4306;50.210;10.628;2022-11-24T11:42:53;5.97;;;1.70;;
8536;SDS011;4306;50.210;10.628;2022-11-24T11:45:26;5.78;;;1.67;;
8536;SDS011;4306;50.210;10.628;2022-11-24T11:48:01;7.68;;;2.35;;
8536;SDS011;4306;50.210;10.628;2022-11-24T11:50:39;11.13;;;4.65;;
8536;SDS011;4306;50.210;10.628;2022-11-24T11:53:13;7.00;;;2.40;;
8536;SDS011;4306;50.210;10.628;2022-11-24T11:55:52;6.63;;;3.83;;
8536;SDS011;4306;50.210;10.628;2022-11-24T11:58:35;7.35;;;3.08;;
8536;SDS011;4306;50.210;10.628;2022-11-24T12:01:35;5.38;;;2.47;;
8536;SDS011;4306;50.210;10.628;2022-11-24T12:04:15;8.25;;;3.75;;
8536;SDS011;4306;50.210;10.628;2022-11-24T12:06:52;6.28;;;1.88;;
8536;SDS011;4306;50.210;10.628;2022-11-24T12:09:29;7.93;;;3.33;;
8536;SDS011;4306;50.210;10.628;2022-11-24T12:12:10;6.20;;;1.90;;
8536;SDS011;4306;50.210;10.628;2022-11-24T12:14:52;11.18;;;2.85;;
8536;SDS011;4306;50.210;10.628;2022-11-24T12:17:28;7.80;;;2.22;;
8536;SDS011;4306;50.210;10.628;2022-11-24T12:20:03;5.40;;;1.90;;
8536;SDS011;4306;50.210;10.628;2022-11-24T12:22:44;5.63;;;2.05;;
8536;SDS011;4306;50.210;10.628;2022-11-24T12:25:21;6.88;;;2.00;;
8536;SDS011;4306;50.210;10.628;2022-11-24T12:27:58;7.10;;;2.40;;
8536;SDS011;4306;50.210;10.628;2022-11-24T12:30:37;5.57;;;1.63;;
8536;SDS011;4306;50.210;10.628;2022-11-24T12:33:10;9.68;;;2.53;;
8536;SDS011;4306;50.210;10.628;2022-11-24T12:36:00;5.47;;;2.30;;
8536;SDS011;4306;50.210;10.628;2022-11-24T12:38:37;8.18;;;2.47;;
8536;SDS011;4306;50.210;10.628;2022-11-24T12:41:23;6.53;;;2.55;;
8536;SDS011;4306;50.210;10.628;2022-11-24T12:43:56;7.70;;;2.17;;
8536;SDS011;4306;50.210;10.628;2022-11-24T12:46:27;10.23;;;2.38;;
8536;SDS011;4306;50.210;10.628;2022-11-24T12:49:03;10.55;;;3.30;;
8536;SDS011;4306;50.210;10.628;2022-11-24T12:51:40;15.05;;;6.35;;
8536;SDS011;4306;50.210;10.628;2022-11-24T12:54:11;10.05;;;4.13;;
8536;SDS011;4306;50.210;10.628;2022-11-24T12:56:41;4.10;;;1.50;;
8536;SDS011;4306;50.210;10.628;2022-11-24T12:59:18;6.57;;;1.75;;
8536;SDS011;4306;50.210;10.628;2022-11-24T13:01:58;5.30;;;1.70;;
8536;SDS011;4306;50.210;10.628;2022-11-24T13:04:31;11.85;;;1.85;;
8536;SDS011;4306;50.210;10.628;2022-11-24T13:07:03;8.82;;;1.60;;
8536;SDS011;4306;50.210;10.628;2022-11-24T13:09:35;10.90;;;2.58;;
8536;SDS011;4306;50.210;10.628;2022-11-24T13:12:09;6.40;;;1.60;;
8536;SDS011;4306;50.210;10.628;2022-11-24T13:14:38;6.72;;;2.47;;
8536;SDS011;4306;50.210;10.628;2022-11-24T13:17:22;10.80;;;2.33;;
8536;SDS011;4306;50.210;10.628;2022-11-24T13:19:58;6.57;;;1.50;;
8536;SDS011;4306;50.210;10.628;2022-11-24T13:22:44;5.70;;;2.60;;
8536;SDS011;4306;50.210;10.628;2022-11-24T13:25:13;6.38;;;2.00;;
8536;SDS011;4306;50.210;10.628;2022-11-24T13:27:46;6.70;;;2.10;;
8536;SDS011;4306;50.210;10.628;2022-11-24T13:33:34;3.55;;;1.70;;
8536;SDS011;4306;50.210;10.628;2022-11-24T13:38:57;2.53;;;1.15;;
8536;SDS011;4306;50.210;10.628;2022-11-24T13:44:43;2.58;;;1.00;;
8536;SDS011;4306;50.210;10.628;2022-11-24T13:47:31;4.53;;;1.08;;
8536;SDS011;4306;50.210;10.628;2022-11-24T13:50:00;3.40;;;1.20;;
8536;SDS011;4306;50.210;10.628;2022-11-24T13:52:36;3.60;;;1.08;;
8536;SDS011;4306;50.210;10.628;2022-11-24T13:55:19;4.35;;;1.00;;
8536;SDS011;4306;50.210;10.628;2022-11-24T13:57:55;3.90;;;1.15;;
8536;SDS011;4306;50.210;10.628;2022-11-24T14:00:26;6.88;;;1.67;;
8536;SDS011;4306;50.210;10.628;2022-11-24T14:02:56;4.95;;;1.20;;
8536;SDS011;4306;50.210;10.628;2022-11-24T14:05:27;3.20;;;0.98;;
8536;SDS011;4306;50.210;10.628;2022-11-24T14:08:00;3.22;;;1.13;;
8536;SDS011;4306;50.210;10.628;2022-11-24T14:10:31;2.70;;;0.90;;
8536;SDS011;4306;50.210;10.628;2022-11-24T14:13:21;10.93;;;4.15;;
8536;SDS011;4306;50.210;10.628;2022-11-24T14:15:59;10.35;;;4.68;;
8536;SDS011;4306;50.210;10.628;2022-11-24T14:18:27;8.50;;;1.88;;
8536;SDS011;4306;50.210;10.628;2022-11-24T14:20:55;6.65;;;1.50;;
8536;SDS011;4306;50.210;10.628;2022-11-24T14:23:23;6.13;;;1.38;;
8536;SDS011;4306;50.210;10.628;2022-11-24T14:25:50;7.25;;;2.00;;
8536;SDS011;4306;50.210;10.628;2022-11-24T14:28:21;7.57;;;1.60;;
8536;SDS011;4306;50.210;10.628;2022-11-24T14:30:50;4.85;;;1.20;;
8536;SDS011;4306;50.210;10.628;2022-11-24T14:33:32;6.10;;;1.70;;
8536;SDS011;4306;50.210;10.628;2022-11-24T14:36:01;4.93;;;1.42;;
8536;SDS011;4306;50.210;10.628;2022-11-24T14:38:28;6.22;;;1.95;;
8536;SDS011;4306;50.210;10.628;2022-11-24T14:40:55;5.18;;;1.70;;
8536;SDS011;4306;50.210;10.628;2022-11-24T14:43:23;8.25;;;2.47;;
8536;SDS011;4306;50.210;10.628;2022-11-24T14:45:54;6.95;;;2.10;;
8536;SDS011;4306;50.210;10.628;2022-11-24T14:48:24;6.03;;;1.50;;
8536;SDS011;4306;50.210;10.628;2022-11-24T14:51:03;9.20;;;1.73;;
8536;SDS011;4306;50.210;10.628;2022-11-24T14:53:32;7.93;;;3.00;;
8536;SDS011;4306;50.210;10.628;2022-11-24T14:56:06;11.30;;;5.82;;
8536;SDS011;4306;50.210;10.628;2022-11-24T14:58:39;8.93;;;3.58;;
8536;SDS011;4306;50.210;10.628;2022-11-24T15:01:06;8.23;;;2.40;;
8536;SDS011;4306;50.210;10.628;2022-11-24T15:03:35;6.43;;;2.10;;
8536;SDS011;4306;50.210;10.628;2022-11-24T15:06:03;10.07;;;3.90;;
8536;SDS011;4306;50.210;10.628;2022-11-24T15:08:32;14.18;;;7.82;;
8536;SDS011;4306;50.210;10.628;2022-11-24T15:11:03;16.17;;;8.25;;
8536;SDS011;4306;50.210;10.628;2022-11-24T15:13:33;16.25;;;8.13;;
8536;SDS011;4306;50.210;10.628;2022-11-24T15:16:03;24.63;;;16.85;;
8536;SDS011;4306;50.210;10.628;2022-11-24T15:18:35;26.55;;;15.05;;
8536;SDS011;4306;50.210;10.628;2022-11-24T15:21:05;20.35;;;9.80;;
8536;SDS011;4306;50.210;10.628;2022-11-24T15:23:33;10.27;;;4.55;;
8536;SDS011;4306;50.210;10.628;2022-11-24T15:28:48;10.05;;;4.05;;